sensor_id;sensor_type;location;lat;lon;timestamp;P1;durP1;ratioP1;P2;durP2;ratioP2
9508;SDS011;4792;50.088;8.122;2024-01-30T00:01:45;14.03;;;10.77;;
9508;SDS011;4792;50.088;8.122;2024-01-30T00:04:13;14.47;;;10.27;;
9508;SDS011;4792;50.088;8.122;2024-01-30T00:06:41;16.37;;;10.07;;
9508;SDS011;4792;50.088;8.122;2024-01-30T00:09:09;13.60;;;10.20;;
9508;SDS011;4792;50.088;8.122;2024-01-30T00:11:38;15.23;;;10.57;;
9508;SDS011;4792;50.088;8.122;2024-01-30T00:14:07;17.53;;;11.57;;
9508;SDS011;4792;50.088;8.122;2024-01-30T00:16:35;15.20;;;11.60;;
9508;SDS011;4792;50.088;8.122;2024-01-30T00:19:03;15.43;;;10.97;;
9508;SDS011;4792;50.088;8.122;2024-01-30T00:21:30;18.87;;;12.40;;
9508;SDS011;4792;50.088;8.122;2024-01-30T00:23:58;18.47;;;10.90;;
9508;SDS011;4792;50.088;8.122;2024-01-30T00:26:26;14.60;;;10.90;;
9508;SDS011;4792;50.088;8.122;2024-01-30T00:28:55;15.90;;;11.47;;
9508;SDS011;4792;50.088;8.122;2024-01-30T00:31:23;17.40;;;11.07;;
9508;SDS011;4792;50.088;8.122;2024-01-30T00:33:51;14.20;;;11.10;;
9508;SDS011;4792;50.088;8.122;2024-01-30T00:36:19;18.73;;;11.10;;
9508;SDS011;4792;50.088;8.122;2024-01-30T00:38:47;13.33;;;10.23;;
9508;SDS011;4792;50.088;8.122;2024-01-30T00:41:17;15.93;;;10.50;;
9508;SDS011;4792;50.088;8.122;2024-01-30T00:43:45;14.47;;;10.00;;
9508;SDS011;4792;50.088;8.122;2024-01-30T00:46:14;12.93;;;9.63;;
9508;SDS011;4792;50.088;8.122;2024-01-30T00:48:42;15.60;;;10.67;;
9508;SDS011;4792;50.088;8.122;2024-01-30T00:51:10;17.37;;;11.33;;
9508;SDS011;4792;50.088;8.122;2024-01-30T00:53:38;14.70;;;10.10;;
9508;SDS011;4792;50.088;8.122;2024-01-30T00:56:08;16.27;;;10.73;;
9508;SDS011;4792;50.088;8.122;2024-01-30T00:58:35;15.03;;;10.87;;
9508;SDS011;4792;50.088;8.122;2024-01-30T01:01:03;16.83;;;10.70;;
9508;SDS011;4792;50.088;8.122;2024-01-30T01:03:35;13.23;;;9.90;;
9508;SDS011;4792;50.088;8.122;2024-01-30T01:06:03;16.10;;;10.50;;
9508;SDS011;4792;50.088;8.122;2024-01-30T01:08:32;14.77;;;10.37;;
9508;SDS011;4792;50.088;8.122;2024-01-30T01:10:59;14.23;;;9.23;;
9508;SDS011;4792;50.088;8.122;2024-01-30T01:13:27;13.20;;;9.90;;
9508;SDS011;4792;50.088;8.122;2024-01-30T01:15:55;15.53;;;9.30;;
9508;SDS011;4792;50.088;8.122;2024-01-30T01:18:23;14.40;;;10.20;;
9508;SDS011;4792;50.088;8.122;2024-01-30T01:20:52;14.10;;;9.93;;
9508;SDS011;4792;50.088;8.122;2024-01-30T01:23:20;14.37;;;9.50;;
9508;SDS011;4792;50.088;8.122;2024-01-30T01:25:48;14.33;;;10.20;;
9508;SDS011;4792;50.088;8.122;2024-01-30T01:28:15;14.70;;;10.50;;
9508;SDS011;4792;50.088;8.122;2024-01-30T01:30:43;16.90;;;10.50;;
9508;SDS011;4792;50.088;8.122;2024-01-30T01:33:11;14.87;;;10.07;;
9508;SDS011;4792;50.088;8.122;2024-01-30T01:35:41;13.03;;;9.80;;
9508;SDS011;4792;50.088;8.122;2024-01-30T01:38:10;14.10;;;9.90;;
9508;SDS011;4792;50.088;8.122;2024-01-30T01:40:38;15.57;;;9.90;;
9508;SDS011;4792;50.088;8.122;2024-01-30T01:43:07;12.03;;;9.40;;
9508;SDS011;4792;50.088;8.122;2024-01-30T01:45:35;12.80;;;9.77;;
9508;SDS011;4792;50.088;8.122;2024-01-30T01:48:03;11.37;;;8.67;;
9508;SDS011;4792;50.088;8.122;2024-01-30T01:50:32;14.03;;;9.10;;
9508;SDS011;4792;50.088;8.122;2024-01-30T01:53:00;12.67;;;9.10;;
9508;SDS011;4792;50.088;8.122;2024-01-30T01:55:30;12.00;;;8.07;;
9508;SDS011;4792;50.088;8.122;2024-01-30T01:57:59;12.40;;;8.60;;
9508;SDS011;4792;50.088;8.122;2024-01-30T02:00:27;14.93;;;9.73;;
9508;SDS011;4792;50.088;8.122;2024-01-30T02:02:55;12.63;;;8.67;;
9508;SDS011;4792;50.088;8.122;2024-01-30T02:05:23;13.60;;;9.20;;
9508;SDS011;4792;50.088;8.122;2024-01-30T02:07:52;15.07;;;9.37;;
9508;SDS011;4792;50.088;8.122;2024-01-30T02:10:20;18.83;;;9.37;;
9508;SDS011;4792;50.088;8.122;2024-01-30T02:12:49;10.17;;;8.47;;
9508;SDS011;4792;50.088;8.122;2024-01-30T02:15:18;13.97;;;9.83;;
9508;SDS011;4792;50.088;8.122;2024-01-30T02:17:46;14.27;;;10.27;;
9508;SDS011;4792;50.088;8.122;2024-01-30T02:20:14;15.67;;;10.63;;
9508;SDS011;4792;50.088;8.122;2024-01-30T02:22:43;13.53;;;9.10;;
9508;SDS011;4792;50.088;8.122;2024-01-30T02:25:11;11.40;;;8.37;;
9508;SDS011;4792;50.088;8.122;2024-01-30T02:27:40;14.47;;;8.53;;
9508;SDS011;4792;50.088;8.122;2024-01-30T02:30:08;11.90;;;8.33;;
9508;SDS011;4792;50.088;8.122;2024-01-30T02:32:36;11.80;;;7.63;;
9508;SDS011;4792;50.088;8.122;2024-01-30T02:35:05;13.17;;;8.67;;
9508;SDS011;4792;50.088;8.122;2024-01-30T02:37:33;16.83;;;11.13;;
9508;SDS011;4792;50.088;8.122;2024-01-30T02:40:02;11.60;;;9.30;;
9508;SDS011;4792;50.088;8.122;2024-01-30T02:42:31;16.77;;;9.50;;
9508;SDS011;4792;50.088;8.122;2024-01-30T02:44:59;13.70;;;8.53;;
9508;SDS011;4792;50.088;8.122;2024-01-30T02:47:27;15.07;;;9.73;;
9508;SDS011;4792;50.088;8.122;2024-01-30T02:49:55;16.10;;;10.40;;
9508;SDS011;4792;50.088;8.122;2024-01-30T02:52:23;14.27;;;9.77;;
9508;SDS011;4792;50.088;8.122;2024-01-30T02:54:50;14.80;;;9.30;;
9508;SDS011;4792;50.088;8.122;2024-01-30T02:57:20;14.20;;;9.63;;
9508;SDS011;4792;50.088;8.122;2024-01-30T02:59:47;11.03;;;9.40;;
9508;SDS011;4792;50.088;8.122;2024-01-30T03:02:15;13.33;;;9.37;;
9508;SDS011;4792;50.088;8.122;2024-01-30T03:04:43;17.07;;;11.27;;
9508;SDS011;4792;50.088;8.122;2024-01-30T03:07:11;17.50;;;11.07;;
9508;SDS011;4792;50.088;8.122;2024-01-30T03:09:40;15.80;;;11.57;;
9508;SDS011;4792;50.088;8.122;2024-01-30T03:12:09;16.57;;;11.50;;
9508;SDS011;4792;50.088;8.122;2024-01-30T03:14:38;18.17;;;12.83;;
9508;SDS011;4792;50.088;8.122;2024-01-30T03:17:06;15.90;;;12.00;;
9508;SDS011;4792;50.088;8.122;2024-01-30T03:19:34;16.63;;;11.97;;
9508;SDS011;4792;50.088;8.122;2024-01-30T03:22:02;15.23;;;10.97;;
9508;SDS011;4792;50.088;8.122;2024-01-30T03:24:30;19.53;;;12.13;;
9508;SDS011;4792;50.088;8.122;2024-01-30T03:26:58;16.20;;;12.53;;
9508;SDS011;4792;50.088;8.122;2024-01-30T03:29:26;16.87;;;12.23;;
9508;SDS011;4792;50.088;8.122;2024-01-30T03:31:56;15.73;;;12.27;;
9508;SDS011;4792;50.088;8.122;2024-01-30T03:34:23;21.33;;;12.97;;
9508;SDS011;4792;50.088;8.122;2024-01-30T03:36:52;22.60;;;13.97;;
9508;SDS011;4792;50.088;8.122;2024-01-30T03:39:20;20.83;;;13.27;;
9508;SDS011;4792;50.088;8.122;2024-01-30T03:41:47;18.67;;;13.07;;
9508;SDS011;4792;50.088;8.122;2024-01-30T03:44:15;21.37;;;13.50;;
9508;SDS011;4792;50.088;8.122;2024-01-30T03:46:43;23.93;;;13.63;;
9508;SDS011;4792;50.088;8.122;2024-01-30T03:49:13;18.97;;;13.13;;
9508;SDS011;4792;50.088;8.122;2024-01-30T03:51:41;21.63;;;14.63;;
9508;SDS011;4792;50.088;8.122;2024-01-30T03:54:09;21.07;;;13.83;;
9508;SDS011;4792;50.088;8.122;2024-01-30T03:56:37;21.23;;;14.53;;
9508;SDS011;4792;50.088;8.122;2024-01-30T03:59:04;19.47;;;13.70;;
9508;SDS011;4792;50.088;8.122;2024-01-30T04:01:32;21.00;;;13.13;;
9508;SDS011;4792;50.088;8.122;2024-01-30T04:04:01;19.50;;;13.30;;
9508;SDS011;4792;50.088;8.122;2024-01-30T04:06:30;19.80;;;11.83;;
9508;SDS011;4792;50.088;8.122;2024-01-30T04:08:58;19.23;;;11.73;;
9508;SDS011;4792;50.088;8.122;2024-01-30T04:11:26;15.80;;;11.57;;
9508;SDS011;4792;50.088;8.122;2024-01-30T04:13:53;18.40;;;11.60;;
9508;SDS011;4792;50.088;8.122;2024-01-30T04:16:20;17.60;;;12.13;;
9508;SDS011;4792;50.088;8.122;2024-01-30T04:18:49;18.23;;;12.50;;
9508;SDS011;4792;50.088;8.122;2024-01-30T04:21:20;19.50;;;13.53;;
9508;SDS011;4792;50.088;8.122;2024-01-30T04:23:50;16.97;;;12.03;;
9508;SDS011;4792;50.088;8.122;2024-01-30T04:26:18;17.63;;;12.43;;
9508;SDS011;4792;50.088;8.122;2024-01-30T04:28:46;16.60;;;11.97;;
9508;SDS011;4792;50.088;8.122;2024-01-30T04:31:13;19.40;;;12.10;;
9508;SDS011;4792;50.088;8.122;2024-01-30T04:33:41;16.63;;;13.13;;
9508;SDS011;4792;50.088;8.122;2024-01-30T04:36:09;18.23;;;12.97;;
9508;SDS011;4792;50.088;8.122;2024-01-30T04:38:37;19.00;;;12.80;;
9508;SDS011;4792;50.088;8.122;2024-01-30T04:41:07;19.33;;;13.00;;
9508;SDS011;4792;50.088;8.122;2024-01-30T04:43:35;18.50;;;12.57;;
9508;SDS011;4792;50.088;8.122;2024-01-30T04:46:03;14.97;;;11.53;;
9508;SDS011;4792;50.088;8.122;2024-01-30T04:48:31;16.73;;;12.07;;
9508;SDS011;4792;50.088;8.122;2024-01-30T04:50:59;19.90;;;14.93;;
9508;SDS011;4792;50.088;8.122;2024-01-30T04:53:29;19.83;;;13.50;;
9508;SDS011;4792;50.088;8.122;2024-01-30T04:55:57;18.47;;;12.67;;
9508;SDS011;4792;50.088;8.122;2024-01-30T04:58:27;18.30;;;12.97;;
9508;SDS011;4792;50.088;8.122;2024-01-30T05:00:55;17.53;;;13.53;;
9508;SDS011;4792;50.088;8.122;2024-01-30T05:03:24;18.17;;;12.87;;
9508;SDS011;4792;50.088;8.122;2024-01-30T05:05:52;17.47;;;13.27;;
9508;SDS011;4792;50.088;8.122;2024-01-30T05:08:21;23.67;;;14.70;;
9508;SDS011;4792;50.088;8.122;2024-01-30T05:10:49;20.93;;;14.23;;
9508;SDS011;4792;50.088;8.122;2024-01-30T05:13:17;18.93;;;12.73;;
9508;SDS011;4792;50.088;8.122;2024-01-30T05:15:46;18.53;;;13.40;;
9508;SDS011;4792;50.088;8.122;2024-01-30T05:18:14;18.60;;;13.53;;
9508;SDS011;4792;50.088;8.122;2024-01-30T05:20:42;18.77;;;13.53;;
9508;SDS011;4792;50.088;8.122;2024-01-30T05:23:10;22.33;;;14.10;;
9508;SDS011;4792;50.088;8.122;2024-01-30T05:25:38;21.37;;;14.63;;
9508;SDS011;4792;50.088;8.122;2024-01-30T05:28:06;22.87;;;15.13;;
9508;SDS011;4792;50.088;8.122;2024-01-30T05:30:33;21.93;;;15.10;;
9508;SDS011;4792;50.088;8.122;2024-01-30T05:33:03;23.37;;;16.07;;
9508;SDS011;4792;50.088;8.122;2024-01-30T05:35:31;22.27;;;14.93;;
9508;SDS011;4792;50.088;8.122;2024-01-30T05:37:59;20.53;;;15.17;;
9508;SDS011;4792;50.088;8.122;2024-01-30T05:40:26;21.00;;;15.17;;
9508;SDS011;4792;50.088;8.122;2024-01-30T05:42:54;18.07;;;13.90;;
9508;SDS011;4792;50.088;8.122;2024-01-30T05:45:22;21.87;;;14.50;;
9508;SDS011;4792;50.088;8.122;2024-01-30T05:47:50;19.90;;;13.60;;
9508;SDS011;4792;50.088;8.122;2024-01-30T05:50:22;20.13;;;13.77;;
9508;SDS011;4792;50.088;8.122;2024-01-30T05:52:53;24.10;;;16.60;;
9508;SDS011;4792;50.088;8.122;2024-01-30T05:55:33;24.80;;;14.77;;
9508;SDS011;4792;50.088;8.122;2024-01-30T05:58:02;21.33;;;14.37;;
9508;SDS011;4792;50.088;8.122;2024-01-30T06:00:47;23.70;;;15.83;;
9508;SDS011;4792;50.088;8.122;2024-01-30T06:03:31;23.20;;;16.80;;
9508;SDS011;4792;50.088;8.122;2024-01-30T06:06:00;25.53;;;16.27;;
9508;SDS011;4792;50.088;8.122;2024-01-30T06:08:28;21.83;;;15.40;;
9508;SDS011;4792;50.088;8.122;2024-01-30T06:11:11;21.00;;;15.53;;
9508;SDS011;4792;50.088;8.122;2024-01-30T06:13:40;21.20;;;15.90;;
9508;SDS011;4792;50.088;8.122;2024-01-30T06:16:09;24.77;;;15.97;;
9508;SDS011;4792;50.088;8.122;2024-01-30T06:18:38;22.10;;;16.10;;
9508;SDS011;4792;50.088;8.122;2024-01-30T06:21:10;22.53;;;15.07;;
9508;SDS011;4792;50.088;8.122;2024-01-30T06:23:39;23.83;;;16.33;;
9508;SDS011;4792;50.088;8.122;2024-01-30T06:26:07;22.90;;;15.60;;
9508;SDS011;4792;50.088;8.122;2024-01-30T06:28:50;21.23;;;15.80;;
9508;SDS011;4792;50.088;8.122;2024-01-30T06:31:46;22.27;;;15.93;;
9508;SDS011;4792;50.088;8.122;2024-01-30T06:34:41;24.77;;;16.57;;
9508;SDS011;4792;50.088;8.122;2024-01-30T06:37:26;21.80;;;15.47;;
9508;SDS011;4792;50.088;8.122;2024-01-30T06:40:11;22.27;;;15.87;;
9508;SDS011;4792;50.088;8.122;2024-01-30T06:42:45;20.93;;;15.17;;
9508;SDS011;4792;50.088;8.122;2024-01-30T06:45:16;22.43;;;15.60;;
9508;SDS011;4792;50.088;8.122;2024-01-30T06:47:46;19.90;;;15.50;;
9508;SDS011;4792;50.088;8.122;2024-01-30T06:50:32;21.13;;;15.23;;
9508;SDS011;4792;50.088;8.122;2024-01-30T06:53:06;26.67;;;16.73;;
9508;SDS011;4792;50.088;8.122;2024-01-30T06:55:35;20.87;;;15.67;;
9508;SDS011;4792;50.088;8.122;2024-01-30T06:58:05;20.97;;;15.90;;
9508;SDS011;4792;50.088;8.122;2024-01-30T07:00:34;22.53;;;15.30;;
9508;SDS011;4792;50.088;8.122;2024-01-30T07:03:17;23.67;;;15.97;;
9508;SDS011;4792;50.088;8.122;2024-01-30T07:06:13;21.53;;;15.83;;
9508;SDS011;4792;50.088;8.122;2024-01-30T07:09:13;23.80;;;16.03;;
9508;SDS011;4792;50.088;8.122;2024-01-30T07:11:43;25.13;;;16.93;;
9508;SDS011;4792;50.088;8.122;2024-01-30T07:14:14;21.30;;;14.97;;
9508;SDS011;4792;50.088;8.122;2024-01-30T07:16:45;22.37;;;16.57;;
9508;SDS011;4792;50.088;8.122;2024-01-30T07:19:16;23.03;;;16.20;;
9508;SDS011;4792;50.088;8.122;2024-01-30T07:21:46;25.27;;;16.33;;
9508;SDS011;4792;50.088;8.122;2024-01-30T07:24:32;20.50;;;14.73;;
9508;SDS011;4792;50.088;8.122;2024-01-30T07:27:00;21.10;;;14.13;;
9508;SDS011;4792;50.088;8.122;2024-01-30T07:29:31;22.93;;;14.20;;
9508;SDS011;4792;50.088;8.122;2024-01-30T07:32:03;21.07;;;14.43;;
9508;SDS011;4792;50.088;8.122;2024-01-30T07:34:36;24.13;;;14.97;;
9508;SDS011;4792;50.088;8.122;2024-01-30T07:37:18;24.23;;;15.87;;
9508;SDS011;4792;50.088;8.122;2024-01-30T07:39:51;24.97;;;16.97;;
9508;SDS011;4792;50.088;8.122;2024-01-30T07:42:20;24.40;;;17.07;;
9508;SDS011;4792;50.088;8.122;2024-01-30T07:44:54;22.13;;;14.80;;
9508;SDS011;4792;50.088;8.122;2024-01-30T07:47:22;22.37;;;16.47;;
9508;SDS011;4792;50.088;8.122;2024-01-30T07:49:51;24.07;;;15.67;;
9508;SDS011;4792;50.088;8.122;2024-01-30T07:52:21;21.10;;;14.57;;
9508;SDS011;4792;50.088;8.122;2024-01-30T07:55:03;21.40;;;14.47;;
9508;SDS011;4792;50.088;8.122;2024-01-30T07:57:38;33.07;;;20.30;;
9508;SDS011;4792;50.088;8.122;2024-01-30T08:00:10;22.53;;;15.87;;
9508;SDS011;4792;50.088;8.122;2024-01-30T08:02:40;24.10;;;15.80;;
9508;SDS011;4792;50.088;8.122;2024-01-30T08:05:10;21.27;;;15.80;;
9508;SDS011;4792;50.088;8.122;2024-01-30T08:07:42;21.60;;;15.10;;
9508;SDS011;4792;50.088;8.122;2024-01-30T08:10:14;21.77;;;14.00;;
9508;SDS011;4792;50.088;8.122;2024-01-30T08:12:47;22.63;;;14.10;;
9508;SDS011;4792;50.088;8.122;2024-01-30T08:15:17;21.93;;;15.37;;
9508;SDS011;4792;50.088;8.122;2024-01-30T08:17:48;19.07;;;13.37;;
9508;SDS011;4792;50.088;8.122;2024-01-30T08:20:31;23.13;;;13.70;;
9508;SDS011;4792;50.088;8.122;2024-01-30T08:23:00;18.33;;;12.70;;
9508;SDS011;4792;50.088;8.122;2024-01-30T08:25:32;17.67;;;12.80;;
9508;SDS011;4792;50.088;8.122;2024-01-30T08:28:14;21.80;;;13.80;;
9508;SDS011;4792;50.088;8.122;2024-01-30T08:30:46;24.40;;;16.50;;
9508;SDS011;4792;50.088;8.122;2024-01-30T08:33:15;24.43;;;15.63;;
9508;SDS011;4792;50.088;8.122;2024-01-30T08:35:44;17.83;;;12.03;;
9508;SDS011;4792;50.088;8.122;2024-01-30T08:38:12;20.60;;;12.77;;
9508;SDS011;4792;50.088;8.122;2024-01-30T08:40:45;15.90;;;11.40;;
9508;SDS011;4792;50.088;8.122;2024-01-30T08:43:14;16.27;;;11.40;;
9508;SDS011;4792;50.088;8.122;2024-01-30T08:45:42;18.07;;;12.97;;
9508;SDS011;4792;50.088;8.122;2024-01-30T08:48:10;22.67;;;12.40;;
9508;SDS011;4792;50.088;8.122;2024-01-30T08:50:41;18.23;;;12.17;;
9508;SDS011;4792;50.088;8.122;2024-01-30T08:53:10;20.57;;;13.27;;
9508;SDS011;4792;50.088;8.122;2024-01-30T08:55:39;18.30;;;12.40;;
9508;SDS011;4792;50.088;8.122;2024-01-30T08:58:11;23.63;;;14.17;;
9508;SDS011;4792;50.088;8.122;2024-01-30T09:00:42;18.00;;;11.70;;
9508;SDS011;4792;50.088;8.122;2024-01-30T09:03:11;21.37;;;12.83;;
9508;SDS011;4792;50.088;8.122;2024-01-30T09:05:42;17.27;;;12.33;;
9508;SDS011;4792;50.088;8.122;2024-01-30T09:08:10;18.30;;;12.23;;
9508;SDS011;4792;50.088;8.122;2024-01-30T09:10:38;18.50;;;14.20;;
9508;SDS011;4792;50.088;8.122;2024-01-30T09:13:07;18.47;;;11.23;;
9508;SDS011;4792;50.088;8.122;2024-01-30T09:15:37;14.77;;;10.87;;
9508;SDS011;4792;50.088;8.122;2024-01-30T09:18:07;16.43;;;10.90;;
9508;SDS011;4792;50.088;8.122;2024-01-30T09:20:37;19.20;;;12.50;;
9508;SDS011;4792;50.088;8.122;2024-01-30T09:23:08;14.80;;;10.87;;
9508;SDS011;4792;50.088;8.122;2024-01-30T09:25:37;15.43;;;11.33;;
9508;SDS011;4792;50.088;8.122;2024-01-30T09:28:07;17.83;;;11.43;;
9508;SDS011;4792;50.088;8.122;2024-01-30T09:30:41;22.03;;;15.00;;
9508;SDS011;4792;50.088;8.122;2024-01-30T09:33:09;27.33;;;16.37;;
9508;SDS011;4792;50.088;8.122;2024-01-30T09:35:37;22.97;;;15.40;;
9508;SDS011;4792;50.088;8.122;2024-01-30T09:38:06;15.23;;;10.90;;
9508;SDS011;4792;50.088;8.122;2024-01-30T09:40:33;15.90;;;10.80;;
9508;SDS011;4792;50.088;8.122;2024-01-30T09:43:01;14.57;;;9.47;;
9508;SDS011;4792;50.088;8.122;2024-01-30T09:45:30;11.17;;;8.90;;
9508;SDS011;4792;50.088;8.122;2024-01-30T09:48:05;16.23;;;9.40;;
9508;SDS011;4792;50.088;8.122;2024-01-30T09:50:38;17.67;;;10.70;;
9508;SDS011;4792;50.088;8.122;2024-01-30T09:53:07;22.23;;;14.33;;
9508;SDS011;4792;50.088;8.122;2024-01-30T09:55:42;13.90;;;10.50;;
9508;SDS011;4792;50.088;8.122;2024-01-30T09:58:13;15.37;;;11.20;;
9508;SDS011;4792;50.088;8.122;2024-01-30T10:00:43;14.03;;;9.23;;
9508;SDS011;4792;50.088;8.122;2024-01-30T10:03:15;12.40;;;9.40;;
9508;SDS011;4792;50.088;8.122;2024-01-30T10:05:46;14.63;;;10.53;;
9508;SDS011;4792;50.088;8.122;2024-01-30T10:08:21;12.87;;;8.60;;
9508;SDS011;4792;50.088;8.122;2024-01-30T10:10:50;13.60;;;9.67;;
9508;SDS011;4792;50.088;8.122;2024-01-30T10:13:19;14.93;;;10.03;;
9508;SDS011;4792;50.088;8.122;2024-01-30T10:15:56;11.87;;;8.83;;
9508;SDS011;4792;50.088;8.122;2024-01-30T10:18:28;14.33;;;9.60;;
9508;SDS011;4792;50.088;8.122;2024-01-30T10:21:01;14.97;;;8.53;;
9508;SDS011;4792;50.088;8.122;2024-01-30T10:23:38;15.97;;;9.50;;
9508;SDS011;4792;50.088;8.122;2024-01-30T10:26:09;16.60;;;9.77;;
9508;SDS011;4792;50.088;8.122;2024-01-30T10:28:52;16.37;;;10.67;;
9508;SDS011;4792;50.088;8.122;2024-01-30T10:31:22;16.13;;;9.67;;
9508;SDS011;4792;50.088;8.122;2024-01-30T10:33:53;15.17;;;9.40;;
9508;SDS011;4792;50.088;8.122;2024-01-30T10:36:39;16.47;;;10.50;;
9508;SDS011;4792;50.088;8.122;2024-01-30T10:39:10;25.30;;;15.27;;
9508;SDS011;4792;50.088;8.122;2024-01-30T10:41:39;14.53;;;8.77;;
9508;SDS011;4792;50.088;8.122;2024-01-30T10:44:16;11.47;;;8.97;;
9508;SDS011;4792;50.088;8.122;2024-01-30T10:46:49;13.40;;;8.80;;
9508;SDS011;4792;50.088;8.122;2024-01-30T10:49:25;17.17;;;9.47;;
9508;SDS011;4792;50.088;8.122;2024-01-30T10:51:55;13.07;;;8.60;;
9508;SDS011;4792;50.088;8.122;2024-01-30T10:54:25;12.63;;;9.47;;
9508;SDS011;4792;50.088;8.122;2024-01-30T10:56:56;11.73;;;7.87;;
9508;SDS011;4792;50.088;8.122;2024-01-30T10:59:25;11.27;;;7.87;;
9508;SDS011;4792;50.088;8.122;2024-01-30T11:01:55;12.47;;;8.00;;
9508;SDS011;4792;50.088;8.122;2024-01-30T11:04:44;12.10;;;7.93;;
9508;SDS011;4792;50.088;8.122;2024-01-30T11:07:15;20.13;;;9.63;;
9508;SDS011;4792;50.088;8.122;2024-01-30T11:09:59;10.17;;;8.07;;
9508;SDS011;4792;50.088;8.122;2024-01-30T11:12:45;12.00;;;8.00;;
9508;SDS011;4792;50.088;8.122;2024-01-30T11:15:18;10.43;;;7.53;;
9508;SDS011;4792;50.088;8.122;2024-01-30T11:17:52;10.43;;;7.37;;
9508;SDS011;4792;50.088;8.122;2024-01-30T11:20:25;11.60;;;7.50;;
9508;SDS011;4792;50.088;8.122;2024-01-30T11:22:58;9.90;;;7.80;;
9508;SDS011;4792;50.088;8.122;2024-01-30T11:25:32;10.63;;;8.00;;
9508;SDS011;4792;50.088;8.122;2024-01-30T11:28:12;12.70;;;8.40;;
9508;SDS011;4792;50.088;8.122;2024-01-30T11:30:43;18.23;;;11.07;;
9508;SDS011;4792;50.088;8.122;2024-01-30T11:33:27;16.43;;;11.33;;
9508;SDS011;4792;50.088;8.122;2024-01-30T11:36:04;11.00;;;8.40;;
9508;SDS011;4792;50.088;8.122;2024-01-30T11:38:35;16.30;;;10.90;;
9508;SDS011;4792;50.088;8.122;2024-01-30T11:41:07;18.23;;;11.20;;
9508;SDS011;4792;50.088;8.122;2024-01-30T11:43:39;11.83;;;8.20;;
9508;SDS011;4792;50.088;8.122;2024-01-30T11:46:07;19.10;;;10.80;;
9508;SDS011;4792;50.088;8.122;2024-01-30T11:48:37;14.63;;;9.43;;
9508;SDS011;4792;50.088;8.122;2024-01-30T11:51:08;12.40;;;7.37;;
9508;SDS011;4792;50.088;8.122;2024-01-30T11:53:39;12.10;;;7.97;;
9508;SDS011;4792;50.088;8.122;2024-01-30T11:56:17;11.97;;;7.90;;
9508;SDS011;4792;50.088;8.122;2024-01-30T11:58:50;18.90;;;8.03;;
9508;SDS011;4792;50.088;8.122;2024-01-30T12:01:21;15.63;;;7.57;;
9508;SDS011;4792;50.088;8.122;2024-01-30T12:04:05;11.00;;;7.03;;
9508;SDS011;4792;50.088;8.122;2024-01-30T12:06:39;15.70;;;7.83;;
9508;SDS011;4792;50.088;8.122;2024-01-30T12:09:08;9.67;;;6.87;;
9508;SDS011;4792;50.088;8.122;2024-01-30T12:11:44;8.93;;;7.20;;
9508;SDS011;4792;50.088;8.122;2024-01-30T12:14:13;10.30;;;7.43;;
9508;SDS011;4792;50.088;8.122;2024-01-30T12:16:43;9.73;;;7.90;;
9508;SDS011;4792;50.088;8.122;2024-01-30T12:19:20;8.73;;;7.37;;
9508;SDS011;4792;50.088;8.122;2024-01-30T12:21:56;11.23;;;6.90;;
9508;SDS011;4792;50.088;8.122;2024-01-30T12:24:26;9.97;;;7.47;;
9508;SDS011;4792;50.088;8.122;2024-01-30T12:26:59;10.30;;;7.17;;
9508;SDS011;4792;50.088;8.122;2024-01-30T12:29:31;11.13;;;7.60;;
9508;SDS011;4792;50.088;8.122;2024-01-30T12:32:06;10.73;;;7.40;;
9508;SDS011;4792;50.088;8.122;2024-01-30T12:34:39;14.60;;;7.50;;
9508;SDS011;4792;50.088;8.122;2024-01-30T12:37:27;10.27;;;8.07;;
9508;SDS011;4792;50.088;8.122;2024-01-30T12:39:56;9.43;;;7.33;;
9508;SDS011;4792;50.088;8.122;2024-01-30T12:42:26;13.10;;;7.83;;
9508;SDS011;4792;50.088;8.122;2024-01-30T12:44:56;8.47;;;7.33;;
9508;SDS011;4792;50.088;8.122;2024-01-30T12:47:25;9.87;;;7.63;;
9508;SDS011;4792;50.088;8.122;2024-01-30T12:50:07;10.23;;;7.70;;
9508;SDS011;4792;50.088;8.122;2024-01-30T12:52:43;10.73;;;8.10;;
9508;SDS011;4792;50.088;8.122;2024-01-30T12:55:30;10.73;;;8.13;;
9508;SDS011;4792;50.088;8.122;2024-01-30T12:58:03;12.67;;;7.50;;
9508;SDS011;4792;50.088;8.122;2024-01-30T13:00:32;10.13;;;7.20;;
9508;SDS011;4792;50.088;8.122;2024-01-30T13:03:00;13.53;;;8.67;;
9508;SDS011;4792;50.088;8.122;2024-01-30T13:05:30;10.70;;;7.27;;
9508;SDS011;4792;50.088;8.122;2024-01-30T13:08:13;10.30;;;8.03;;
9508;SDS011;4792;50.088;8.122;2024-01-30T13:10:42;16.80;;;8.83;;
9508;SDS011;4792;50.088;8.122;2024-01-30T13:13:14;11.77;;;8.37;;
9508;SDS011;4792;50.088;8.122;2024-01-30T13:15:46;10.83;;;7.53;;
9508;SDS011;4792;50.088;8.122;2024-01-30T13:18:15;11.03;;;7.40;;
9508;SDS011;4792;50.088;8.122;2024-01-30T13:20:44;10.33;;;8.00;;
9508;SDS011;4792;50.088;8.122;2024-01-30T13:23:15;12.50;;;8.13;;
9508;SDS011;4792;50.088;8.122;2024-01-30T13:25:43;12.87;;;9.40;;
9508;SDS011;4792;50.088;8.122;2024-01-30T13:28:11;10.70;;;8.97;;
9508;SDS011;4792;50.088;8.122;2024-01-30T13:30:41;11.47;;;8.40;;
9508;SDS011;4792;50.088;8.122;2024-01-30T13:33:10;13.83;;;8.90;;
9508;SDS011;4792;50.088;8.122;2024-01-30T13:35:38;21.03;;;13.00;;
9508;SDS011;4792;50.088;8.122;2024-01-30T13:38:23;12.07;;;8.90;;
9508;SDS011;4792;50.088;8.122;2024-01-30T13:40:51;12.33;;;8.93;;
9508;SDS011;4792;50.088;8.122;2024-01-30T13:43:22;12.23;;;8.90;;
9508;SDS011;4792;50.088;8.122;2024-01-30T13:45:50;12.90;;;8.87;;
9508;SDS011;4792;50.088;8.122;2024-01-30T13:48:32;14.67;;;8.93;;
9508;SDS011;4792;50.088;8.122;2024-01-30T13:51:01;12.17;;;8.97;;
9508;SDS011;4792;50.088;8.122;2024-01-30T13:53:30;13.87;;;9.40;;
9508;SDS011;4792;50.088;8.122;2024-01-30T13:56:01;11.67;;;8.93;;
9508;SDS011;4792;50.088;8.122;2024-01-30T13:58:34;14.20;;;9.00;;
9508;SDS011;4792;50.088;8.122;2024-01-30T14:01:17;15.00;;;9.60;;
9508;SDS011;4792;50.088;8.122;2024-01-30T14:03:46;14.23;;;9.53;;
9508;SDS011;4792;50.088;8.122;2024-01-30T14:06:16;14.13;;;8.83;;
9508;SDS011;4792;50.088;8.122;2024-01-30T14:08:47;12.53;;;8.43;;
9508;SDS011;4792;50.088;8.122;2024-01-30T14:11:29;13.90;;;9.27;;
9508;SDS011;4792;50.088;8.122;2024-01-30T14:13:57;11.00;;;8.47;;
9508;SDS011;4792;50.088;8.122;2024-01-30T14:16:30;13.30;;;8.90;;
9508;SDS011;4792;50.088;8.122;2024-01-30T14:19:00;14.37;;;9.00;;
9508;SDS011;4792;50.088;8.122;2024-01-30T14:21:30;13.60;;;9.20;;
9508;SDS011;4792;50.088;8.122;2024-01-30T14:23:59;14.93;;;9.40;;
9508;SDS011;4792;50.088;8.122;2024-01-30T14:26:27;15.40;;;9.30;;
9508;SDS011;4792;50.088;8.122;2024-01-30T14:28:56;13.43;;;9.67;;
9508;SDS011;4792;50.088;8.122;2024-01-30T14:31:25;14.53;;;9.47;;
9508;SDS011;4792;50.088;8.122;2024-01-30T14:33:54;12.37;;;8.70;;
9508;SDS011;4792;50.088;8.122;2024-01-30T14:36:37;17.87;;;9.77;;
9508;SDS011;4792;50.088;8.122;2024-01-30T14:39:08;13.60;;;9.87;;
9508;SDS011;4792;50.088;8.122;2024-01-30T14:41:38;12.83;;;10.10;;
9508;SDS011;4792;50.088;8.122;2024-01-30T14:44:18;16.27;;;9.97;;
9508;SDS011;4792;50.088;8.122;2024-01-30T14:46:47;14.33;;;9.87;;
9508;SDS011;4792;50.088;8.122;2024-01-30T14:49:15;12.70;;;9.80;;
9508;SDS011;4792;50.088;8.122;2024-01-30T14:51:44;12.77;;;9.60;;
9508;SDS011;4792;50.088;8.122;2024-01-30T14:54:18;13.33;;;8.87;;
9508;SDS011;4792;50.088;8.122;2024-01-30T14:56:50;12.50;;;9.50;;
9508;SDS011;4792;50.088;8.122;2024-01-30T14:59:23;14.17;;;9.70;;
9508;SDS011;4792;50.088;8.122;2024-01-30T15:01:52;14.17;;;9.60;;
9508;SDS011;4792;50.088;8.122;2024-01-30T15:04:22;14.00;;;9.07;;
9508;SDS011;4792;50.088;8.122;2024-01-30T15:06:53;13.60;;;9.63;;
9508;SDS011;4792;50.088;8.122;2024-01-30T15:09:23;14.50;;;9.10;;
9508;SDS011;4792;50.088;8.122;2024-01-30T15:11:56;11.83;;;8.40;;
9508;SDS011;4792;50.088;8.122;2024-01-30T15:14:24;14.70;;;9.77;;
9508;SDS011;4792;50.088;8.122;2024-01-30T15:16:55;11.00;;;7.97;;